aviador You're here:

TIST Decoded Metar

ST. THOMAS in VIRGIN ISL.
Report Time2017-12-15 22:53:00
UTC Time2017-12-15 23:43:56
Flight Rules vfr VFR
Wind060° at 10 kt
W.Decomp.*RWY 10: 8.9 kt HW 4.5 kt LCW
W.Rank060° ranks 8
Current wind is above 060° avg. (8.3)
Visibility9999 m
Phenomena:N/A
Clouds:N/A
Expected CloudBase > 2,000 ft AGL from Temp-Dew spread
CeilingNone
Temp27°C (ISA +12)
Dew Point22°C (74% RH)
Heat Index29.2°C
QNH1017 hPa
Density Alt1,624 ft
Elevation23 ft
Report Wrong Elevation
Raw Report
TIST 152253Z AUTO 06010KT 10SM CLR 27/22 A3003=

Extra information for TIST:More info

Metar Taf Metar & Taf Last 4 Metars F.Rules Stats Wind Profile Meteogram Temp Stats Airport Information Weather charts Add Link Nearby VenuesMetar ALERT Operation Metar Decoded Social comments